sensor_id;sensor_type;location;lat;lon;timestamp;temperature;humidity
20288;DHT22;10303;51.960;8.372;2023-04-03T00:01:02;7.40;98.40
20288;DHT22;10303;51.960;8.372;2023-04-03T00:03:28;7.30;98.40
20288;DHT22;10303;51.960;8.372;2023-04-03T00:05:54;7.30;98.40
20288;DHT22;10303;51.960;8.372;2023-04-03T00:08:21;7.30;98.40
20288;DHT22;10303;51.960;8.372;2023-04-03T00:10:47;7.30;98.50
20288;DHT22;10303;51.960;8.372;2023-04-03T00:13:13;7.30;98.50
20288;DHT22;10303;51.960;8.372;2023-04-03T00:15:41;7.30;98.60
20288;DHT22;10303;51.960;8.372;2023-04-03T00:18:07;7.20;98.60
20288;DHT22;10303;51.960;8.372;2023-04-03T00:20:34;7.20;98.60
20288;DHT22;10303;51.960;8.372;2023-04-03T00:23:01;7.10;98.50
20288;DHT22;10303;51.960;8.372;2023-04-03T00:25:27;7.10;98.60
20288;DHT22;10303;51.960;8.372;2023-04-03T00:27:53;7.10;98.60
20288;DHT22;10303;51.960;8.372;2023-04-03T00:30:22;7.00;98.50
20288;DHT22;10303;51.960;8.372;2023-04-03T00:32:49;7.00;98.70
20288;DHT22;10303;51.960;8.372;2023-04-03T00:35:15;7.00;98.60
20288;DHT22;10303;51.960;8.372;2023-04-03T00:37:43;6.90;98.60
20288;DHT22;10303;51.960;8.372;2023-04-03T00:40:09;6.90;98.60
20288;DHT22;10303;51.960;8.372;2023-04-03T00:42:37;6.90;98.60
20288;DHT22;10303;51.960;8.372;2023-04-03T00:47:31;6.90;98.60
20288;DHT22;10303;51.960;8.372;2023-04-03T00:49:57;6.80;98.60
20288;DHT22;10303;51.960;8.372;2023-04-03T00:52:28;6.80;98.60
20288;DHT22;10303;51.960;8.372;2023-04-03T00:54:59;6.80;98.70
20288;DHT22;10303;51.960;8.372;2023-04-03T00:57:30;6.80;98.70
20288;DHT22;10303;51.960;8.372;2023-04-03T01:00:07;6.70;98.60
20288;DHT22;10303;51.960;8.372;2023-04-03T01:02:35;6.70;98.70
20288;DHT22;10303;51.960;8.372;2023-04-03T01:05:03;6.70;98.70
20288;DHT22;10303;51.960;8.372;2023-04-03T01:07:30;6.60;98.70
20288;DHT22;10303;51.960;8.372;2023-04-03T01:09:59;6.60;98.70
20288;DHT22;10303;51.960;8.372;2023-04-03T01:12:37;6.70;98.80
20288;DHT22;10303;51.960;8.372;2023-04-03T01:15:23;6.60;98.80
20288;DHT22;10303;51.960;8.372;2023-04-03T01:17:55;6.50;98.80
20288;DHT22;10303;51.960;8.372;2023-04-03T01:25:44;6.50;98.80
20288;DHT22;10303;51.960;8.372;2023-04-03T01:28:18;6.40;98.80
20288;DHT22;10303;51.960;8.372;2023-04-03T01:33:33;6.40;99.00
20288;DHT22;10303;51.960;8.372;2023-04-03T01:35:59;6.40;98.80
20288;DHT22;10303;51.960;8.372;2023-04-03T01:38:26;6.40;98.80
20288;DHT22;10303;51.960;8.372;2023-04-03T01:40:52;6.30;98.80
20288;DHT22;10303;51.960;8.372;2023-04-03T01:43:18;6.30;98.80
20288;DHT22;10303;51.960;8.372;2023-04-03T01:45:43;6.30;98.80
20288;DHT22;10303;51.960;8.372;2023-04-03T01:48:10;6.40;98.80
20288;DHT22;10303;51.960;8.372;2023-04-03T01:50:36;6.20;98.80
20288;DHT22;10303;51.960;8.372;2023-04-03T01:53:02;6.20;98.80
20288;DHT22;10303;51.960;8.372;2023-04-03T01:55:28;6.20;98.90
20288;DHT22;10303;51.960;8.372;2023-04-03T01:57:53;6.20;98.90
20288;DHT22;10303;51.960;8.372;2023-04-03T02:00:20;6.20;98.90
20288;DHT22;10303;51.960;8.372;2023-04-03T02:02:45;6.10;98.90
20288;DHT22;10303;51.960;8.372;2023-04-03T02:05:13;6.10;98.90
20288;DHT22;10303;51.960;8.372;2023-04-03T02:07:39;6.10;98.90
20288;DHT22;10303;51.960;8.372;2023-04-03T02:10:05;6.10;98.90
20288;DHT22;10303;51.960;8.372;2023-04-03T02:12:31;6.00;98.80
20288;DHT22;10303;51.960;8.372;2023-04-03T02:14:57;6.00;98.80
20288;DHT22;10303;51.960;8.372;2023-04-03T02:17:23;6.00;98.90
20288;DHT22;10303;51.960;8.372;2023-04-03T02:19:49;6.00;98.80
20288;DHT22;10303;51.960;8.372;2023-04-03T02:22:15;5.90;98.90
20288;DHT22;10303;51.960;8.372;2023-04-03T02:24:41;6.00;98.90
20288;DHT22;10303;51.960;8.372;2023-04-03T02:27:07;5.90;98.90
20288;DHT22;10303;51.960;8.372;2023-04-03T02:29:33;5.90;98.90
20288;DHT22;10303;51.960;8.372;2023-04-03T02:31:59;5.80;98.90
20288;DHT22;10303;51.960;8.372;2023-04-03T02:34:25;5.80;98.90
20288;DHT22;10303;51.960;8.372;2023-04-03T02:36:52;5.80;98.90
20288;DHT22;10303;51.960;8.372;2023-04-03T02:39:19;5.80;98.90
20288;DHT22;10303;51.960;8.372;2023-04-03T02:41:44;5.70;98.90
20288;DHT22;10303;51.960;8.372;2023-04-03T02:44:17;5.70;98.90
20288;DHT22;10303;51.960;8.372;2023-04-03T02:46:44;5.70;98.90
20288;DHT22;10303;51.960;8.372;2023-04-03T02:49:10;5.70;98.90
20288;DHT22;10303;51.960;8.372;2023-04-03T02:51:36;5.60;98.90
20288;DHT22;10303;51.960;8.372;2023-04-03T02:54:02;5.60;99.00
20288;DHT22;10303;51.960;8.372;2023-04-03T02:56:31;5.80;99.00
20288;DHT22;10303;51.960;8.372;2023-04-03T02:58:57;5.50;99.00
20288;DHT22;10303;51.960;8.372;2023-04-03T03:01:24;5.50;99.00
20288;DHT22;10303;51.960;8.372;2023-04-03T03:03:50;5.50;99.00
20288;DHT22;10303;51.960;8.372;2023-04-03T03:06:17;5.50;99.10
20288;DHT22;10303;51.960;8.372;2023-04-03T03:08:43;5.40;99.10
20288;DHT22;10303;51.960;8.372;2023-04-03T03:11:10;5.80;99.10
20288;DHT22;10303;51.960;8.372;2023-04-03T03:13:36;5.40;99.10
20288;DHT22;10303;51.960;8.372;2023-04-03T03:16:02;5.40;99.20
20288;DHT22;10303;51.960;8.372;2023-04-03T03:18:29;5.30;99.10
20288;DHT22;10303;51.960;8.372;2023-04-03T03:20:57;5.30;99.10
20288;DHT22;10303;51.960;8.372;2023-04-03T03:23:27;5.30;99.20
20288;DHT22;10303;51.960;8.372;2023-04-03T03:25:59;5.30;99.20
20288;DHT22;10303;51.960;8.372;2023-04-03T03:28:29;5.30;99.20
20288;DHT22;10303;51.960;8.372;2023-04-03T03:30:57;5.30;99.10
20288;DHT22;10303;51.960;8.372;2023-04-03T03:33:23;5.20;99.10
20288;DHT22;10303;51.960;8.372;2023-04-03T03:35:52;5.20;99.10
20288;DHT22;10303;51.960;8.372;2023-04-03T03:38:19;5.20;99.20
20288;DHT22;10303;51.960;8.372;2023-04-03T03:40:47;5.20;99.20
20288;DHT22;10303;51.960;8.372;2023-04-03T03:43:17;5.20;99.20
20288;DHT22;10303;51.960;8.372;2023-04-03T03:45:44;5.20;99.20
20288;DHT22;10303;51.960;8.372;2023-04-03T03:48:11;5.10;99.60
20288;DHT22;10303;51.960;8.372;2023-04-03T03:50:38;5.10;99.30
20288;DHT22;10303;51.960;8.372;2023-04-03T03:53:04;5.30;99.40
20288;DHT22;10303;51.960;8.372;2023-04-03T03:55:31;5.10;99.30
20288;DHT22;10303;51.960;8.372;2023-04-03T03:57:57;5.10;99.30
20288;DHT22;10303;51.960;8.372;2023-04-03T04:00:24;5.10;99.30
20288;DHT22;10303;51.960;8.372;2023-04-03T04:02:54;5.10;99.30
20288;DHT22;10303;51.960;8.372;2023-04-03T04:05:22;5.10;99.40
20288;DHT22;10303;51.960;8.372;2023-04-03T04:07:48;5.00;99.30
20288;DHT22;10303;51.960;8.372;2023-04-03T04:10:15;5.00;99.40
20288;DHT22;10303;51.960;8.372;2023-04-03T04:12:42;5.00;99.40
20288;DHT22;10303;51.960;8.372;2023-04-03T04:15:09;5.00;99.40
20288;DHT22;10303;51.960;8.372;2023-04-03T04:17:36;5.00;99.40
20288;DHT22;10303;51.960;8.372;2023-04-03T04:20:04;4.90;99.40
20288;DHT22;10303;51.960;8.372;2023-04-03T04:22:32;4.90;99.40
20288;DHT22;10303;51.960;8.372;2023-04-03T04:24:58;4.90;99.50
20288;DHT22;10303;51.960;8.372;2023-04-03T04:27:25;4.80;99.60
20288;DHT22;10303;51.960;8.372;2023-04-03T04:29:50;4.80;99.70
20288;DHT22;10303;51.960;8.372;2023-04-03T04:32:17;4.80;99.70
20288;DHT22;10303;51.960;8.372;2023-04-03T04:34:44;4.90;99.90
20288;DHT22;10303;51.960;8.372;2023-04-03T04:37:10;4.80;99.80
20288;DHT22;10303;51.960;8.372;2023-04-03T04:39:36;4.80;99.80
20288;DHT22;10303;51.960;8.372;2023-04-03T04:42:03;4.70;99.80
20288;DHT22;10303;51.960;8.372;2023-04-03T04:44:31;4.70;99.80
20288;DHT22;10303;51.960;8.372;2023-04-03T04:46:57;4.70;99.80
20288;DHT22;10303;51.960;8.372;2023-04-03T04:49:23;4.70;99.80
20288;DHT22;10303;51.960;8.372;2023-04-03T04:51:50;4.70;99.80
20288;DHT22;10303;51.960;8.372;2023-04-03T04:54:18;4.70;99.90
20288;DHT22;10303;51.960;8.372;2023-04-03T04:56:46;4.70;99.90
20288;DHT22;10303;51.960;8.372;2023-04-03T04:59:12;4.70;99.90
20288;DHT22;10303;51.960;8.372;2023-04-03T05:01:39;4.70;99.90
20288;DHT22;10303;51.960;8.372;2023-04-03T05:04:09;4.60;99.90
20288;DHT22;10303;51.960;8.372;2023-04-03T05:06:35;4.60;99.90
20288;DHT22;10303;51.960;8.372;2023-04-03T05:09:04;4.60;99.90
20288;DHT22;10303;51.960;8.372;2023-04-03T05:11:32;4.60;99.90
20288;DHT22;10303;51.960;8.372;2023-04-03T05:13:58;4.60;99.90
20288;DHT22;10303;51.960;8.372;2023-04-03T05:16:25;4.60;99.90
20288;DHT22;10303;51.960;8.372;2023-04-03T05:18:52;4.50;99.90
20288;DHT22;10303;51.960;8.372;2023-04-03T05:21:21;4.50;99.90
20288;DHT22;10303;51.960;8.372;2023-04-03T05:23:50;4.50;99.90
20288;DHT22;10303;51.960;8.372;2023-04-03T05:26:16;4.50;99.90
20288;DHT22;10303;51.960;8.372;2023-04-03T05:28:45;4.50;99.90
20288;DHT22;10303;51.960;8.372;2023-04-03T05:31:11;4.60;99.90
20288;DHT22;10303;51.960;8.372;2023-04-03T05:33:38;4.50;99.90
20288;DHT22;10303;51.960;8.372;2023-04-03T05:36:07;4.50;99.90
20288;DHT22;10303;51.960;8.372;2023-04-03T05:38:38;4.50;99.90
20288;DHT22;10303;51.960;8.372;2023-04-03T05:41:04;4.50;99.90
20288;DHT22;10303;51.960;8.372;2023-04-03T05:43:31;4.50;99.90
20288;DHT22;10303;51.960;8.372;2023-04-03T05:45:59;4.50;99.90
20288;DHT22;10303;51.960;8.372;2023-04-03T05:48:26;4.50;99.90
20288;DHT22;10303;51.960;8.372;2023-04-03T05:50:53;4.50;99.90
20288;DHT22;10303;51.960;8.372;2023-04-03T05:53:27;4.50;99.90
20288;DHT22;10303;51.960;8.372;2023-04-03T05:55:57;4.50;99.90
20288;DHT22;10303;51.960;8.372;2023-04-03T05:58:24;4.50;99.90
20288;DHT22;10303;51.960;8.372;2023-04-03T06:00:51;4.50;99.90
20288;DHT22;10303;51.960;8.372;2023-04-03T06:03:17;4.50;99.90
20288;DHT22;10303;51.960;8.372;2023-04-03T06:05:43;4.50;99.90
20288;DHT22;10303;51.960;8.372;2023-04-03T06:08:11;4.50;99.90
20288;DHT22;10303;51.960;8.372;2023-04-03T06:10:36;4.50;99.90
20288;DHT22;10303;51.960;8.372;2023-04-03T06:13:02;4.50;99.90
20288;DHT22;10303;51.960;8.372;2023-04-03T06:15:28;4.50;99.90
20288;DHT22;10303;51.960;8.372;2023-04-03T06:17:54;4.60;99.90
20288;DHT22;10303;51.960;8.372;2023-04-03T06:20:21;4.50;99.90
20288;DHT22;10303;51.960;8.372;2023-04-03T06:22:49;4.60;99.90
20288;DHT22;10303;51.960;8.372;2023-04-03T06:25:16;4.60;99.90
20288;DHT22;10303;51.960;8.372;2023-04-03T06:27:45;4.60;99.90
20288;DHT22;10303;51.960;8.372;2023-04-03T06:30:11;4.70;99.90
20288;DHT22;10303;51.960;8.372;2023-04-03T06:32:37;4.70;99.90
20288;DHT22;10303;51.960;8.372;2023-04-03T06:35:05;4.70;99.90
20288;DHT22;10303;51.960;8.372;2023-04-03T06:37:31;4.80;99.90
20288;DHT22;10303;51.960;8.372;2023-04-03T06:39:58;4.80;99.90
20288;DHT22;10303;51.960;8.372;2023-04-03T06:42:26;4.80;99.90
20288;DHT22;10303;51.960;8.372;2023-04-03T06:44:58;4.90;99.90
20288;DHT22;10303;51.960;8.372;2023-04-03T06:47:24;4.90;99.90
20288;DHT22;10303;51.960;8.372;2023-04-03T06:49:50;4.90;99.90
20288;DHT22;10303;51.960;8.372;2023-04-03T06:52:16;5.00;99.90
20288;DHT22;10303;51.960;8.372;2023-04-03T06:54:42;5.00;99.90
20288;DHT22;10303;51.960;8.372;2023-04-03T06:57:08;5.00;99.90
20288;DHT22;10303;51.960;8.372;2023-04-03T06:59:35;5.00;99.90
20288;DHT22;10303;51.960;8.372;2023-04-03T07:02:02;5.10;99.90
20288;DHT22;10303;51.960;8.372;2023-04-03T07:04:28;5.10;99.90
20288;DHT22;10303;51.960;8.372;2023-04-03T07:06:54;5.20;99.90
20288;DHT22;10303;51.960;8.372;2023-04-03T07:09:20;5.20;99.90
20288;DHT22;10303;51.960;8.372;2023-04-03T07:11:46;5.20;99.90
20288;DHT22;10303;51.960;8.372;2023-04-03T07:14:12;5.50;99.90
20288;DHT22;10303;51.960;8.372;2023-04-03T07:16:38;5.30;99.90
20288;DHT22;10303;51.960;8.372;2023-04-03T07:19:04;5.30;99.90
20288;DHT22;10303;51.960;8.372;2023-04-03T07:21:30;5.40;99.90
20288;DHT22;10303;51.960;8.372;2023-04-03T07:23:56;5.50;99.90
20288;DHT22;10303;51.960;8.372;2023-04-03T07:26:22;5.90;99.90
20288;DHT22;10303;51.960;8.372;2023-04-03T07:28:48;5.70;99.90
20288;DHT22;10303;51.960;8.372;2023-04-03T07:31:15;5.60;99.90
20288;DHT22;10303;51.960;8.372;2023-04-03T07:33:44;5.90;99.90
20288;DHT22;10303;51.960;8.372;2023-04-03T07:36:15;5.90;99.90
20288;DHT22;10303;51.960;8.372;2023-04-03T07:38:43;5.80;99.90
20288;DHT22;10303;51.960;8.372;2023-04-03T07:41:13;5.90;99.90
20288;DHT22;10303;51.960;8.372;2023-04-03T07:43:41;5.90;99.90
20288;DHT22;10303;51.960;8.372;2023-04-03T07:46:07;6.00;99.90
20288;DHT22;10303;51.960;8.372;2023-04-03T07:48:34;6.10;99.90
20288;DHT22;10303;51.960;8.372;2023-04-03T07:51:01;6.10;99.90
20288;DHT22;10303;51.960;8.372;2023-04-03T07:53:29;6.20;99.90
20288;DHT22;10303;51.960;8.372;2023-04-03T07:55:59;6.20;99.90
20288;DHT22;10303;51.960;8.372;2023-04-03T07:58:25;6.30;99.90
20288;DHT22;10303;51.960;8.372;2023-04-03T08:00:52;6.30;99.90
20288;DHT22;10303;51.960;8.372;2023-04-03T08:03:18;6.40;99.90
20288;DHT22;10303;51.960;8.372;2023-04-03T08:05:46;6.50;99.90
20288;DHT22;10303;51.960;8.372;2023-04-03T08:08:16;6.50;99.90
20288;DHT22;10303;51.960;8.372;2023-04-03T08:10:48;6.60;99.90
20288;DHT22;10303;51.960;8.372;2023-04-03T08:13:20;6.70;99.90
20288;DHT22;10303;51.960;8.372;2023-04-03T08:15:47;6.70;99.90
20288;DHT22;10303;51.960;8.372;2023-04-03T08:18:14;6.90;99.90
20288;DHT22;10303;51.960;8.372;2023-04-03T08:20:41;6.90;99.90
20288;DHT22;10303;51.960;8.372;2023-04-03T08:23:08;7.00;99.90
20288;DHT22;10303;51.960;8.372;2023-04-03T08:25:38;7.10;99.90
20288;DHT22;10303;51.960;8.372;2023-04-03T08:28:05;7.30;99.90
20288;DHT22;10303;51.960;8.372;2023-04-03T08:30:32;7.30;99.90
20288;DHT22;10303;51.960;8.372;2023-04-03T08:33:00;7.40;99.90
20288;DHT22;10303;51.960;8.372;2023-04-03T08:35:27;7.50;99.90
20288;DHT22;10303;51.960;8.372;2023-04-03T08:37:54;7.60;99.90
20288;DHT22;10303;51.960;8.372;2023-04-03T08:40:19;7.80;99.90
20288;DHT22;10303;51.960;8.372;2023-04-03T08:48:33;8.30;99.90
20288;DHT22;10303;51.960;8.372;2023-04-03T08:51:12;8.50;99.90
20288;DHT22;10303;51.960;8.372;2023-04-03T08:53:48;8.60;99.90
20288;DHT22;10303;51.960;8.372;2023-04-03T08:56:18;8.90;99.90
20288;DHT22;10303;51.960;8.372;2023-04-03T08:59:00;9.00;99.90
20288;DHT22;10303;51.960;8.372;2023-04-03T09:01:40;9.40;99.90
20288;DHT22;10303;51.960;8.372;2023-04-03T09:04:15;9.50;99.90
20288;DHT22;10303;51.960;8.372;2023-04-03T09:06:44;9.70;99.70
20288;DHT22;10303;51.960;8.372;2023-04-03T09:09:20;9.90;99.40
20288;DHT22;10303;51.960;8.372;2023-04-03T09:12:23;10.10;98.60
20288;DHT22;10303;51.960;8.372;2023-04-03T09:15:02;10.30;97.70
20288;DHT22;10303;51.960;8.372;2023-04-03T09:18:08;10.40;98.60
20288;DHT22;10303;51.960;8.372;2023-04-03T09:21:12;10.60;98.00
20288;DHT22;10303;51.960;8.372;2023-04-03T09:23:49;10.80;97.80
20288;DHT22;10303;51.960;8.372;2023-04-03T09:26:30;11.00;98.00
20288;DHT22;10303;51.960;8.372;2023-04-03T09:29:08;11.20;97.50
20288;DHT22;10303;51.960;8.372;2023-04-03T09:31:42;11.30;96.50
20288;DHT22;10303;51.960;8.372;2023-04-03T09:34:31;11.50;95.60
20288;DHT22;10303;51.960;8.372;2023-04-03T09:37:02;11.70;97.00
20288;DHT22;10303;51.960;8.372;2023-04-03T09:39:48;11.90;96.60
20288;DHT22;10303;51.960;8.372;2023-04-03T09:42:20;12.20;96.40
20288;DHT22;10303;51.960;8.372;2023-04-03T09:47:33;12.40;96.30
20288;DHT22;10303;51.960;8.372;2023-04-03T09:50:20;12.60;94.60
20288;DHT22;10303;51.960;8.372;2023-04-03T09:52:49;12.80;93.20
20288;DHT22;10303;51.960;8.372;2023-04-03T09:55:20;12.90;93.00
20288;DHT22;10303;51.960;8.372;2023-04-03T09:57:53;13.00;93.40
20288;DHT22;10303;51.960;8.372;2023-04-03T10:00:28;13.10;94.30
20288;DHT22;10303;51.960;8.372;2023-04-03T10:02:59;13.30;94.60
20288;DHT22;10303;51.960;8.372;2023-04-03T10:05:34;13.40;94.60
20288;DHT22;10303;51.960;8.372;2023-04-03T10:10:36;13.70;93.40
20288;DHT22;10303;51.960;8.372;2023-04-03T10:13:19;13.80;93.60
20288;DHT22;10303;51.960;8.372;2023-04-03T10:21:57;14.00;91.00
20288;DHT22;10303;51.960;8.372;2023-04-03T10:27:44;14.10;88.00
20288;DHT22;10303;51.960;8.372;2023-04-03T10:30:40;14.10;88.40
20288;DHT22;10303;51.960;8.372;2023-04-03T10:39:34;14.10;84.80
20288;DHT22;10303;51.960;8.372;2023-04-03T10:42:47;14.20;87.50
20288;DHT22;10303;51.960;8.372;2023-04-03T10:51:15;14.60;84.10
20288;DHT22;10303;51.960;8.372;2023-04-03T10:54:13;14.70;85.00
20288;DHT22;10303;51.960;8.372;2023-04-03T10:56:47;14.90;84.70
20288;DHT22;10303;51.960;8.372;2023-04-03T10:59:25;15.10;84.90
20288;DHT22;10303;51.960;8.372;2023-04-03T11:04:48;15.50;84.40
20288;DHT22;10303;51.960;8.372;2023-04-03T11:07:23;15.40;83.30
20288;DHT22;10303;51.960;8.372;2023-04-03T11:10:15;15.50;82.30
20288;DHT22;10303;51.960;8.372;2023-04-03T11:12:58;15.50;82.70
20288;DHT22;10303;51.960;8.372;2023-04-03T11:15:32;15.50;80.80
20288;DHT22;10303;51.960;8.372;2023-04-03T11:18:06;15.40;78.70
20288;DHT22;10303;51.960;8.372;2023-04-03T11:20:37;15.30;79.00
20288;DHT22;10303;51.960;8.372;2023-04-03T11:26:06;15.20;79.80
20288;DHT22;10303;51.960;8.372;2023-04-03T11:28:38;15.10;80.90
20288;DHT22;10303;51.960;8.372;2023-04-03T11:34:33;15.10;79.70
20288;DHT22;10303;51.960;8.372;2023-04-03T11:37:16;15.10;79.30
20288;DHT22;10303;51.960;8.372;2023-04-03T11:40:06;15.20;79.90
20288;DHT22;10303;51.960;8.372;2023-04-03T11:42:51;15.30;80.50
20288;DHT22;10303;51.960;8.372;2023-04-03T11:45:37;15.50;81.30
20288;DHT22;10303;51.960;8.372;2023-04-03T11:50:46;15.80;79.10
20288;DHT22;10303;51.960;8.372;2023-04-03T11:55:46;16.00;78.50
20288;DHT22;10303;51.960;8.372;2023-04-03T11:58:21;16.00;77.60
20288;DHT22;10303;51.960;8.372;2023-04-03T12:01:00;16.10;76.80
20288;DHT22;10303;51.960;8.372;2023-04-03T12:04:16;16.00;73.10
20288;DHT22;10303;51.960;8.372;2023-04-03T12:08:58;15.80;73.50
20288;DHT22;10303;51.960;8.372;2023-04-03T12:11:28;15.70;73.80
20288;DHT22;10303;51.960;8.372;2023-04-03T12:16:26;15.40;74.50
20288;DHT22;10303;51.960;8.372;2023-04-03T12:29:23;14.90;76.70
20288;DHT22;10303;51.960;8.372;2023-04-03T12:35:05;14.90;75.00
20288;DHT22;10303;51.960;8.372;2023-04-03T12:43:37;14.90;74.70
20288;DHT22;10303;51.960;8.372;2023-04-03T12:46:24;14.80;73.80
20288;DHT22;10303;51.960;8.372;2023-04-03T12:48:59;14.80;74.10
20288;DHT22;10303;51.960;8.372;2023-04-03T12:51:36;14.80;75.00
20288;DHT22;10303;51.960;8.372;2023-04-03T12:56:49;14.60;74.40
20288;DHT22;10303;51.960;8.372;2023-04-03T12:59:22;14.60;75.80
20288;DHT22;10303;51.960;8.372;2023-04-03T13:01:54;14.60;74.60
20288;DHT22;10303;51.960;8.372;2023-04-03T13:04:25;14.60;75.70
20288;DHT22;10303;51.960;8.372;2023-04-03T13:06:52;14.70;76.00
20288;DHT22;10303;51.960;8.372;2023-04-03T13:09:27;14.80;76.70
20288;DHT22;10303;51.960;8.372;2023-04-03T13:12:08;15.00;76.60
20288;DHT22;10303;51.960;8.372;2023-04-03T13:14:37;15.10;76.80
20288;DHT22;10303;51.960;8.372;2023-04-03T13:19:40;15.40;73.50
20288;DHT22;10303;51.960;8.372;2023-04-03T13:22:29;15.50;73.10
20288;DHT22;10303;51.960;8.372;2023-04-03T13:25:07;15.60;72.30
20288;DHT22;10303;51.960;8.372;2023-04-03T13:27:36;15.70;74.90
20288;DHT22;10303;51.960;8.372;2023-04-03T13:30:05;15.80;75.00
20288;DHT22;10303;51.960;8.372;2023-04-03T13:32:32;15.90;75.20
20288;DHT22;10303;51.960;8.372;2023-04-03T13:34:59;16.00;75.10
20288;DHT22;10303;51.960;8.372;2023-04-03T13:37:31;16.10;73.70
20288;DHT22;10303;51.960;8.372;2023-04-03T13:42:36;16.10;71.90
20288;DHT22;10303;51.960;8.372;2023-04-03T13:45:20;16.20;71.00
20288;DHT22;10303;51.960;8.372;2023-04-03T13:48:19;16.10;72.00
20288;DHT22;10303;51.960;8.372;2023-04-03T13:53:30;16.00;71.20
20288;DHT22;10303;51.960;8.372;2023-04-03T13:58:36;15.90;70.90
20288;DHT22;10303;51.960;8.372;2023-04-03T14:01:18;15.80;69.10
20288;DHT22;10303;51.960;8.372;2023-04-03T14:04:10;15.60;70.30
20288;DHT22;10303;51.960;8.372;2023-04-03T14:06:42;15.60;70.60
20288;DHT22;10303;51.960;8.372;2023-04-03T14:09:10;15.50;70.20
20288;DHT22;10303;51.960;8.372;2023-04-03T14:11:36;15.50;70.20
20288;DHT22;10303;51.960;8.372;2023-04-03T14:14:09;15.40;69.80
20288;DHT22;10303;51.960;8.372;2023-04-03T14:16:41;15.40;70.30
20288;DHT22;10303;51.960;8.372;2023-04-03T14:19:25;15.40;69.90
20288;DHT22;10303;51.960;8.372;2023-04-03T14:21:54;15.40;70.20
20288;DHT22;10303;51.960;8.372;2023-04-03T14:24:21;15.40;70.40
20288;DHT22;10303;51.960;8.372;2023-04-03T14:26:50;15.40;70.50
20288;DHT22;10303;51.960;8.372;2023-04-03T14:29:18;15.40;69.50
20288;DHT22;10303;51.960;8.372;2023-04-03T14:31:48;15.40;69.90
20288;DHT22;10303;51.960;8.372;2023-04-03T14:34:15;15.40;70.30
20288;DHT22;10303;51.960;8.372;2023-04-03T14:36:43;15.50;70.30
20288;DHT22;10303;51.960;8.372;2023-04-03T14:39:17;15.40;69.40
20288;DHT22;10303;51.960;8.372;2023-04-03T14:41:45;15.50;68.00
20288;DHT22;10303;51.960;8.372;2023-04-03T14:44:11;15.50;67.80
20288;DHT22;10303;51.960;8.372;2023-04-03T14:46:40;15.50;69.10
20288;DHT22;10303;51.960;8.372;2023-04-03T14:49:24;15.50;70.50
20288;DHT22;10303;51.960;8.372;2023-04-03T14:51:55;15.50;69.10
20288;DHT22;10303;51.960;8.372;2023-04-03T14:54:23;15.50;70.50
20288;DHT22;10303;51.960;8.372;2023-04-03T14:56:53;15.60;70.20
20288;DHT22;10303;51.960;8.372;2023-04-03T14:59:21;15.60;69.80
20288;DHT22;10303;51.960;8.372;2023-04-03T15:01:48;15.60;70.00
20288;DHT22;10303;51.960;8.372;2023-04-03T15:04:15;15.60;70.20
20288;DHT22;10303;51.960;8.372;2023-04-03T15:06:45;15.70;69.80
20288;DHT22;10303;51.960;8.372;2023-04-03T15:09:20;15.70;69.30
20288;DHT22;10303;51.960;8.372;2023-04-03T15:11:50;15.80;68.30
20288;DHT22;10303;51.960;8.372;2023-04-03T15:14:17;15.70;68.00
20288;DHT22;10303;51.960;8.372;2023-04-03T15:16:43;15.80;68.30
20288;DHT22;10303;51.960;8.372;2023-04-03T15:19:10;15.60;68.90
20288;DHT22;10303;51.960;8.372;2023-04-03T15:21:38;15.70;69.20
20288;DHT22;10303;51.960;8.372;2023-04-03T15:24:04;15.50;69.30
20288;DHT22;10303;51.960;8.372;2023-04-03T15:26:31;15.50;68.00
20288;DHT22;10303;51.960;8.372;2023-04-03T15:28:57;15.50;68.70
20288;DHT22;10303;51.960;8.372;2023-04-03T15:31:23;15.40;66.40
20288;DHT22;10303;51.960;8.372;2023-04-03T15:33:49;15.30;65.70
20288;DHT22;10303;51.960;8.372;2023-04-03T15:36:15;15.20;66.60
20288;DHT22;10303;51.960;8.372;2023-04-03T15:38:41;15.10;66.60
20288;DHT22;10303;51.960;8.372;2023-04-03T15:41:07;15.10;66.70
20288;DHT22;10303;51.960;8.372;2023-04-03T15:43:33;15.00;67.70
20288;DHT22;10303;51.960;8.372;2023-04-03T15:46:01;15.00;67.10
20288;DHT22;10303;51.960;8.372;2023-04-03T15:48:29;15.00;67.50
20288;DHT22;10303;51.960;8.372;2023-04-03T15:50:55;14.90;66.30
20288;DHT22;10303;51.960;8.372;2023-04-03T15:53:22;14.90;66.60
20288;DHT22;10303;51.960;8.372;2023-04-03T15:55:47;14.90;67.00
20288;DHT22;10303;51.960;8.372;2023-04-03T15:58:13;14.80;66.10
20288;DHT22;10303;51.960;8.372;2023-04-03T16:00:40;14.90;65.80
20288;DHT22;10303;51.960;8.372;2023-04-03T16:03:10;14.70;66.30
20288;DHT22;10303;51.960;8.372;2023-04-03T16:05:38;14.80;66.60
20288;DHT22;10303;51.960;8.372;2023-04-03T16:08:05;14.70;66.90
20288;DHT22;10303;51.960;8.372;2023-04-03T16:10:34;14.60;67.20
20288;DHT22;10303;51.960;8.372;2023-04-03T16:13:01;14.60;66.80
20288;DHT22;10303;51.960;8.372;2023-04-03T16:15:28;14.60;66.50
20288;DHT22;10303;51.960;8.372;2023-04-03T16:17:55;14.50;67.20
20288;DHT22;10303;51.960;8.372;2023-04-03T16:20:24;14.50;67.10
20288;DHT22;10303;51.960;8.372;2023-04-03T16:22:51;14.50;67.00
20288;DHT22;10303;51.960;8.372;2023-04-03T16:25:17;14.50;67.10
20288;DHT22;10303;51.960;8.372;2023-04-03T16:27:43;14.40;67.50
20288;DHT22;10303;51.960;8.372;2023-04-03T16:30:10;14.40;67.70
20288;DHT22;10303;51.960;8.372;2023-04-03T16:32:38;14.40;67.20
20288;DHT22;10303;51.960;8.372;2023-04-03T16:35:05;14.40;66.90
20288;DHT22;10303;51.960;8.372;2023-04-03T16:37:32;14.40;66.80
20288;DHT22;10303;51.960;8.372;2023-04-03T16:39:58;14.30;66.90
20288;DHT22;10303;51.960;8.372;2023-04-03T16:42:25;14.30;66.90
20288;DHT22;10303;51.960;8.372;2023-04-03T16:44:51;14.20;66.10
20288;DHT22;10303;51.960;8.372;2023-04-03T16:47:17;14.20;65.90
20288;DHT22;10303;51.960;8.372;2023-04-03T16:49:45;14.20;65.60
20288;DHT22;10303;51.960;8.372;2023-04-03T16:52:12;14.10;66.20
20288;DHT22;10303;51.960;8.372;2023-04-03T16:54:38;14.10;66.10
20288;DHT22;10303;51.960;8.372;2023-04-03T16:57:04;13.90;65.00
20288;DHT22;10303;51.960;8.372;2023-04-03T16:59:30;13.90;66.20
20288;DHT22;10303;51.960;8.372;2023-04-03T17:01:56;14.00;65.40
20288;DHT22;10303;51.960;8.372;2023-04-03T17:04:21;13.80;66.00
20288;DHT22;10303;51.960;8.372;2023-04-03T17:06:48;13.80;66.70
20288;DHT22;10303;51.960;8.372;2023-04-03T17:09:14;13.70;66.80
20288;DHT22;10303;51.960;8.372;2023-04-03T17:11:40;13.60;66.80
20288;DHT22;10303;51.960;8.372;2023-04-03T17:14:06;13.50;66.70
20288;DHT22;10303;51.960;8.372;2023-04-03T17:16:33;13.50;67.10
20288;DHT22;10303;51.960;8.372;2023-04-03T17:19:02;13.40;66.40
20288;DHT22;10303;51.960;8.372;2023-04-03T17:21:29;13.30;66.40
20288;DHT22;10303;51.960;8.372;2023-04-03T17:24:00;13.20;66.70
20288;DHT22;10303;51.960;8.372;2023-04-03T17:26:28;13.20;66.60
20288;DHT22;10303;51.960;8.372;2023-04-03T17:28:55;13.10;66.90
20288;DHT22;10303;51.960;8.372;2023-04-03T17:31:21;13.00;66.90